Bethany, Nebraska
Current Conditions -  °F | °C
As of 7:26 AM on Thursday 23 Oct 2014 (Local Time) from KLNK Reporting Station
Moderate Fog Moderate Fog  
Wind Chill: 54°   Ceiling: 200
Heat Index: 54°   Visibility: 0.25mi
Dew Point: 52°   Wind: 5mph
Humidity: 93%   Direction: 350°N
Pressure: 30.06"   Gusts: NA
Location:  40.8244°N, 96.6054°W
Report Text: KLNK 231226Z 35004KT 1/4SM FG BKN002 OVC007 12/11 A3006 RMK AO2 T01220111 RVRNO
Loading
Personal Weather Stations






























Interactive Weather Map
Tropical Storm Tracking
New forecast layout! Learn more

10-Day Weather Forecast

Advertisements
Track Severe Weather on mobile